createdAt,value
2018-09-02T00:00:30.519Z,990.1
2018-09-02T00:01:34.132Z,990.2
2018-09-02T00:02:35.312Z,990.1
2018-09-02T00:03:36.494Z,990.2
2018-09-02T00:04:37.626Z,990.2
2018-09-02T00:05:38.765Z,990.2
2018-09-02T00:06:39.862Z,990.2
2018-09-02T00:07:41.048Z,990.1
2018-09-02T00:08:44.391Z,990.2
2018-09-02T00:09:45.517Z,990.2
2018-09-02T00:10:46.671Z,990.1
2018-09-02T00:11:47.803Z,990.1
2018-09-02T00:12:49.008Z,990.1
2018-09-02T00:13:50.145Z,990.1
2018-09-02T00:14:51.277Z,990.1
2018-09-02T00:15:52.432Z,990.2
2018-09-02T00:16:53.555Z,990.2
2018-09-02T00:17:54.687Z,990.2
2018-09-02T00:18:55.951Z,990.1
2018-09-02T00:19:57.079Z,990.2
2018-09-02T00:20:58.167Z,990.3
2018-09-02T00:21:59.299Z,990.3
2018-09-02T00:23:00.442Z,990.2
2018-09-02T00:24:01.927Z,990.2
2018-09-02T00:25:08.575Z,990.3
2018-09-02T00:26:09.740Z,990.3
2018-09-02T00:27:10.873Z,990.3
2018-09-02T00:28:14.783Z,990.3
2018-09-02T00:29:15.967Z,990.3
2018-09-02T00:30:17.196Z,990.3
2018-09-02T00:31:18.316Z,990.3
2018-09-02T00:32:19.574Z,990.4
2018-09-02T00:33:20.808Z,990.4
2018-09-02T00:34:21.900Z,990.4
2018-09-02T00:35:23.007Z,990.4
2018-09-02T00:36:27.167Z,990.4
2018-09-02T00:37:28.287Z,990.4
2018-09-02T00:38:29.397Z,990.4
2018-09-02T00:39:30.554Z,990.3
2018-09-02T00:40:31.709Z,990.4
2018-09-02T00:41:32.858Z,990.4
2018-09-02T00:42:33.983Z,990.5
2018-09-02T00:43:35.083Z,990.4
2018-09-02T00:44:36.228Z,990.5
2018-09-02T00:45:37.382Z,990.4
2018-09-02T00:46:38.500Z,990.4
2018-09-02T00:47:39.994Z,990.2
2018-09-02T00:48:41.124Z,990.4
2018-09-02T00:49:42.358Z,990.4
2018-09-02T00:50:43.480Z,990.4
2018-09-02T00:51:44.633Z,990.4
2018-09-02T00:52:45.739Z,990.2
2018-09-02T00:53:46.854Z,990.4
2018-09-02T00:54:48.015Z,990.4
2018-09-02T00:55:49.157Z,990.4
2018-09-02T00:56:50.338Z,990.4
2018-09-02T00:57:51.455Z,990.4
2018-09-02T00:58:52.576Z,990.3
2018-09-02T00:59:53.729Z,990.4
2018-09-02T01:00:54.831Z,990.4
2018-09-02T01:01:55.954Z,990.4
2018-09-02T01:02:57.039Z,990.3
2018-09-02T01:03:58.142Z,990.3
2018-09-02T01:04:59.294Z,990.4
2018-09-02T01:06:00.428Z,990.4
2018-09-02T01:07:01.547Z,990.4
2018-09-02T01:08:02.675Z,990.3
2018-09-02T01:09:06.035Z,990.3
2018-09-02T01:10:07.205Z,990.3
2018-09-02T01:11:08.351Z,990.3
2018-09-02T01:12:09.507Z,990.3
2018-09-02T01:13:10.751Z,990.4
2018-09-02T01:14:14.635Z,990.3
2018-09-02T01:15:15.805Z,990.4
2018-09-02T01:16:16.945Z,990.4
2018-09-02T01:17:18.115Z,990.4
2018-09-02T01:18:19.244Z,990.4
2018-09-02T01:19:20.393Z,990.4
2018-09-02T01:20:21.576Z,990.4
2018-09-02T01:21:22.775Z,990.4
2018-09-02T01:22:23.891Z,990.4
2018-09-02T01:23:24.997Z,990.4
2018-09-02T01:24:26.131Z,990.4
2018-09-02T01:25:27.267Z,990.4
2018-09-02T01:26:28.403Z,990.4
2018-09-02T01:27:29.549Z,990.4
2018-09-02T01:28:33.146Z,990.3
2018-09-02T01:29:34.275Z,990.3
2018-09-02T01:30:35.394Z,990.4
2018-09-02T01:31:36.499Z,990.4
2018-09-02T01:32:37.602Z,990.4
2018-09-02T01:33:38.763Z,990.4
2018-09-02T01:34:39.886Z,990.3
2018-09-02T01:35:41.067Z,990.3
2018-09-02T01:36:42.186Z,990.4
2018-09-02T01:37:43.325Z,990.4
2018-09-02T01:38:44.466Z,990.4
2018-09-02T01:39:45.586Z,990.4
2018-09-02T01:40:46.742Z,990.4
2018-09-02T01:41:47.847Z,990.4
2018-09-02T01:42:48.984Z,990.4
2018-09-02T01:43:50.112Z,990.4
2018-09-02T01:44:51.219Z,990.4
2018-09-02T01:45:52.335Z,990.4
2018-09-02T01:46:53.459Z,990.4
2018-09-02T01:47:54.562Z,990.4
2018-09-02T01:48:55.686Z,990.4
2018-09-02T01:49:56.807Z,990.3
2018-09-02T01:50:58.169Z,990.4
2018-09-02T01:51:59.280Z,990.4
2018-09-02T01:53:00.387Z,990.4
2018-09-02T01:54:01.520Z,990.4
2018-09-02T01:55:02.644Z,990.4
2018-09-02T01:56:03.794Z,990.4
2018-09-02T01:57:04.919Z,990.2
2018-09-02T01:58:06.067Z,990.4
2018-09-02T01:59:07.184Z,990.4
2018-09-02T02:00:08.285Z,990.4
2018-09-02T02:01:09.451Z,990.4
2018-09-02T02:02:10.578Z,990.3
2018-09-02T02:03:11.712Z,990.4
2018-09-02T02:04:12.838Z,990.2
2018-09-02T02:05:13.969Z,990.4
2018-09-02T02:06:15.677Z,990.1
2018-09-02T02:07:16.810Z,990.3
2018-09-02T02:08:17.926Z,990.3
2018-09-02T02:09:19.073Z,990.3
2018-09-02T02:10:20.183Z,990.4
2018-09-02T02:11:21.327Z,990.4
2018-09-02T02:12:22.438Z,990.4
2018-09-02T02:13:23.546Z,990.4
2018-09-02T02:14:24.665Z,990.4
2018-09-02T02:15:25.769Z,990.4
2018-09-02T02:16:27.156Z,990.4
2018-09-02T02:17:28.287Z,990.4
2018-09-02T02:18:29.407Z,990.3
2018-09-02T02:19:30.510Z,990.3
2018-09-02T02:20:31.890Z,990.3
2018-09-02T02:21:33.323Z,990.3
2018-09-02T02:22:34.474Z,990.2
2018-09-02T02:23:35.583Z,990.3
2018-09-02T02:24:36.671Z,990.3
2018-09-02T02:25:37.795Z,990.2
2018-09-02T02:26:38.915Z,990.3
2018-09-02T02:27:39.999Z,990.3
2018-09-02T02:28:41.097Z,990.2
2018-09-02T02:29:42.186Z,990.3
2018-09-02T02:30:43.312Z,990.2
2018-09-02T02:31:44.434Z,990
2018-09-02T02:32:45.540Z,990.1
2018-09-02T02:33:46.642Z,990.1
2018-09-02T02:34:47.746Z,990.1
2018-09-02T02:35:48.886Z,990.1
2018-09-02T02:36:54.579Z,990.1
2018-09-02T02:37:55.751Z,990.1
2018-09-02T02:38:56.909Z,990
2018-09-02T02:39:58.035Z,990.1
2018-09-02T02:40:59.140Z,990.1
2018-09-02T02:42:01.003Z,990.1
2018-09-02T02:43:02.126Z,990.1
2018-09-02T02:44:03.279Z,989.9
2018-09-02T02:45:04.431Z,990.1
2018-09-02T02:46:05.560Z,990.1
2018-09-02T02:47:06.701Z,990
2018-09-02T02:48:07.813Z,989.8
2018-09-02T02:49:08.936Z,990
2018-09-02T02:50:10.063Z,990
2018-09-02T02:51:11.213Z,990.1
2018-09-02T02:52:12.488Z,990.1
2018-09-02T02:53:14.312Z,990
2018-09-02T02:54:15.436Z,990.1
2018-09-02T02:55:16.565Z,990.1
2018-09-02T02:56:17.704Z,990.1
2018-09-02T02:57:18.858Z,990.1
2018-09-02T02:58:19.999Z,990.1
2018-09-02T02:59:21.132Z,990.1
2018-09-02T03:00:22.257Z,990.1
2018-09-02T03:01:23.495Z,990.1
2018-09-02T03:02:24.663Z,990.1
2018-09-02T03:03:25.782Z,990.1
2018-09-02T03:04:26.897Z,990
2018-09-02T03:05:30.732Z,990
2018-09-02T03:06:31.954Z,990
2018-09-02T03:07:33.081Z,990.1
2018-09-02T03:08:34.195Z,990
2018-09-02T03:09:35.295Z,990.1
2018-09-02T03:10:36.476Z,990.1
2018-09-02T03:11:37.543Z,990.1
2018-09-02T03:12:38.680Z,990
2018-09-02T03:13:39.779Z,990
2018-09-02T03:14:41.955Z,990
2018-09-02T03:15:43.072Z,990.1
2018-09-02T03:16:46.675Z,990.1
2018-09-02T03:17:47.819Z,990.1
2018-09-02T03:18:48.951Z,990.2
2018-09-02T03:19:50.089Z,990.1
2018-09-02T03:20:51.231Z,990.1
2018-09-02T03:21:52.334Z,990.1
2018-09-02T03:22:53.511Z,990
2018-09-02T03:23:54.632Z,990
2018-09-02T03:24:55.732Z,990.1
2018-09-02T03:25:56.827Z,990
2018-09-02T03:26:57.929Z,990.1
2018-09-02T03:27:59.067Z,990.1
2018-09-02T03:29:00.193Z,990.1
2018-09-02T03:30:01.368Z,990
2018-09-02T03:31:02.511Z,990
2018-09-02T03:32:03.638Z,989.9
2018-09-02T03:33:04.762Z,990
2018-09-02T03:34:05.909Z,990
2018-09-02T03:35:09.775Z,990
2018-09-02T03:36:10.914Z,989.9
2018-09-02T03:37:12.027Z,989.9
2018-09-02T03:38:13.151Z,989.9
2018-09-02T03:39:14.275Z,989.9
2018-09-02T03:40:15.378Z,989.9
2018-09-02T03:41:16.493Z,990
2018-09-02T03:42:17.622Z,990
2018-09-02T03:43:18.760Z,990
2018-09-02T03:44:19.878Z,990
2018-09-02T03:45:21.018Z,990
2018-09-02T03:46:22.121Z,990.1
2018-09-02T03:47:23.258Z,990
2018-09-02T03:48:24.407Z,990
2018-09-02T03:49:25.528Z,990
2018-09-02T03:50:26.647Z,990.1
2018-09-02T03:51:27.769Z,990.1
2018-09-02T03:52:28.877Z,990.1
2018-09-02T03:53:30.197Z,990.1
2018-09-02T03:54:31.317Z,990.1
2018-09-02T03:55:32.454Z,990.1
2018-09-02T03:56:33.593Z,990.1
2018-09-02T03:57:34.972Z,990.1
2018-09-02T03:58:36.138Z,990.1
2018-09-02T03:59:37.256Z,990
2018-09-02T04:00:38.372Z,990
2018-09-02T04:01:39.472Z,990.1
2018-09-02T04:02:40.581Z,990
2018-09-02T04:03:41.799Z,990.1
2018-09-02T04:04:42.929Z,990.1
2018-09-02T04:05:44.025Z,990.1
2018-09-02T04:06:45.144Z,990.1
2018-09-02T04:07:46.254Z,990.1
2018-09-02T04:08:47.386Z,990.1
2018-09-02T04:09:48.501Z,990.1
2018-09-02T04:10:49.621Z,990.1
2018-09-02T04:11:52.973Z,990.1
2018-09-02T04:12:54.051Z,990.1
2018-09-02T04:13:55.479Z,990.1
2018-09-02T04:14:56.601Z,990.1
2018-09-02T04:15:57.719Z,990.1
2018-09-02T04:16:58.834Z,990.1
2018-09-02T04:17:59.929Z,990
2018-09-02T04:19:01.149Z,990.1
2018-09-02T04:20:02.284Z,990.1
2018-09-02T04:21:03.397Z,990.1
2018-09-02T04:22:04.585Z,990.1
2018-09-02T04:23:05.755Z,990.2
2018-09-02T04:24:06.888Z,990.2
2018-09-02T04:25:10.680Z,990.2
2018-09-02T04:26:11.875Z,990.1
2018-09-02T04:27:13.031Z,990.1
2018-09-02T04:28:14.158Z,989.9
2018-09-02T04:29:15.289Z,990.1
2018-09-02T04:30:16.392Z,990.1
2018-09-02T04:31:17.813Z,990
2018-09-02T04:32:19.031Z,990.2
2018-09-02T04:33:23.079Z,990.1
2018-09-02T04:34:24.279Z,990.1
2018-09-02T04:35:25.386Z,990
2018-09-02T04:36:26.544Z,990.1
2018-09-02T04:37:27.683Z,990
2018-09-02T04:38:28.802Z,990.1
2018-09-02T04:39:32.980Z,990
2018-09-02T04:40:34.122Z,990
2018-09-02T04:41:35.255Z,990
2018-09-02T04:42:36.462Z,989.8
2018-09-02T04:43:37.580Z,990
2018-09-02T04:44:38.737Z,990
2018-09-02T04:45:39.827Z,990
2018-09-02T04:46:40.986Z,990
2018-09-02T04:47:42.136Z,990
2018-09-02T04:48:43.251Z,990
2018-09-02T04:49:44.359Z,989.9
2018-09-02T04:50:45.472Z,990
2018-09-02T04:51:46.587Z,990
2018-09-02T04:52:47.696Z,990
2018-09-02T04:53:48.789Z,990
2018-09-02T04:54:50.402Z,990.1
2018-09-02T04:55:51.532Z,990
2018-09-02T04:56:52.674Z,990
2018-09-02T04:57:53.803Z,990.1
2018-09-02T04:58:54.913Z,990.1
2018-09-02T04:59:56.324Z,990.1
2018-09-02T05:00:57.461Z,990.1
2018-09-02T05:01:58.570Z,990.1
2018-09-02T05:02:59.668Z,990.1
2018-09-02T05:04:00.781Z,990.2
2018-09-02T05:05:01.972Z,990.1
2018-09-02T05:06:03.068Z,990.2
2018-09-02T05:07:04.182Z,990.1
2018-09-02T05:08:05.306Z,990.2
2018-09-02T05:09:06.439Z,990.1
2018-09-02T05:10:07.606Z,990.1
2018-09-02T05:11:08.735Z,990.1
2018-09-02T05:12:09.885Z,990.1
2018-09-02T05:13:17.051Z,990.1
2018-09-02T05:14:20.392Z,990.1
2018-09-02T05:15:21.542Z,990.1
2018-09-02T05:16:30.453Z,990.1
2018-09-02T05:17:31.589Z,990.1
2018-09-02T05:18:32.699Z,990.1
2018-09-02T05:19:33.821Z,990.1
2018-09-02T05:20:34.977Z,990.2
2018-09-02T05:21:36.105Z,990.1
2018-09-02T05:22:37.265Z,989.9
2018-09-02T05:23:38.368Z,990.1
2018-09-02T05:24:39.457Z,990.2
2018-09-02T05:25:40.977Z,990.2
2018-09-02T05:26:42.072Z,990.2
2018-09-02T05:27:43.204Z,990.2
2018-09-02T05:28:44.362Z,990.2
2018-09-02T05:29:45.468Z,990.1
2018-09-02T05:30:46.596Z,990.2
2018-09-02T05:31:47.743Z,990.1
2018-09-02T05:32:48.846Z,990.1
2018-09-02T05:33:53.005Z,990
2018-09-02T05:34:54.124Z,990.1
2018-09-02T05:35:55.268Z,990.1
2018-09-02T05:36:56.459Z,990
2018-09-02T05:37:57.504Z,990.1
2018-09-02T05:38:58.639Z,990.1
2018-09-02T05:39:59.752Z,990.1
2018-09-02T05:41:00.930Z,990.1
2018-09-02T05:42:04.847Z,990.1
2018-09-02T05:43:05.951Z,990.1
2018-09-02T05:44:09.625Z,990.1
2018-09-02T05:45:10.705Z,990
2018-09-02T05:46:11.889Z,990
2018-09-02T05:47:13.028Z,990
2018-09-02T05:48:14.149Z,990
2018-09-02T05:49:15.292Z,990
2018-09-02T05:50:16.429Z,990
2018-09-02T05:51:17.673Z,989.9
2018-09-02T05:52:18.823Z,990
2018-09-02T05:53:20.020Z,990
2018-09-02T05:54:21.183Z,990
2018-09-02T05:55:22.366Z,989.8
2018-09-02T05:56:23.561Z,989.9
2018-09-02T05:57:24.692Z,989.9
2018-09-02T05:58:25.791Z,990
2018-09-02T05:59:26.900Z,989.9
2018-09-02T06:00:28.004Z,989.9
2018-09-02T06:01:29.145Z,989.9
2018-09-02T06:02:30.248Z,989.9
2018-09-02T06:03:31.416Z,989.9
2018-09-02T06:04:32.533Z,990
2018-09-02T06:05:33.637Z,989.9
2018-09-02T06:06:34.763Z,989.9
2018-09-02T06:07:35.859Z,989.9
2018-09-02T06:08:36.978Z,989.9
2018-09-02T06:09:38.109Z,989.9
2018-09-02T06:10:41.672Z,989.9
2018-09-02T06:11:42.919Z,989.9
2018-09-02T06:12:47.059Z,989.9
2018-09-02T06:13:48.171Z,989.8
2018-09-02T06:14:49.285Z,989.8
2018-09-02T06:15:50.464Z,989.8
2018-09-02T06:16:51.976Z,989.8
2018-09-02T06:17:53.083Z,989.8
2018-09-02T06:18:54.187Z,989.7
2018-09-02T06:19:55.292Z,989.7
2018-09-02T06:20:56.383Z,989.7
2018-09-02T06:21:57.538Z,989.7
2018-09-02T06:22:58.634Z,989.5
2018-09-02T06:23:59.775Z,989.7
2018-09-02T06:25:05.884Z,989.7
2018-09-02T06:26:07.040Z,989.7
2018-09-02T06:27:08.231Z,989.7
2018-09-02T06:28:10.261Z,989.5
2018-09-02T06:29:11.368Z,989.6
2018-09-02T06:30:12.584Z,989.6
2018-09-02T06:31:13.713Z,989.7
2018-09-02T06:32:14.929Z,989.6
2018-09-02T06:33:16.083Z,989.5
2018-09-02T06:34:17.230Z,989.6
2018-09-02T06:35:18.423Z,989.6
2018-09-02T06:36:19.567Z,989.6
2018-09-02T06:37:20.680Z,989.6
2018-09-02T06:38:21.803Z,989.6
2018-09-02T06:39:25.977Z,989.6
2018-09-02T06:40:26.998Z,989.5
2018-09-02T06:41:28.113Z,989.5
2018-09-02T06:42:29.267Z,989.5
2018-09-02T06:43:33.393Z,989.5
2018-09-02T06:44:34.505Z,989.4
2018-09-02T06:45:35.731Z,989.5
2018-09-02T06:46:36.815Z,989.4
2018-09-02T06:47:39.587Z,989.5
2018-09-02T06:48:43.254Z,989.5
2018-09-02T06:49:44.373Z,989.5
2018-09-02T06:50:45.473Z,989.6
2018-09-02T06:51:46.585Z,989.5
2018-09-02T06:52:50.023Z,989.3
2018-09-02T06:53:51.116Z,989.4
2018-09-02T06:54:52.257Z,989.6
2018-09-02T06:55:53.360Z,989.4
2018-09-02T06:56:54.538Z,989.4
2018-09-02T06:57:55.684Z,989.4
2018-09-02T06:58:56.820Z,989.6
2018-09-02T06:59:57.969Z,989.4
2018-09-02T07:00:59.130Z,989.3
2018-09-02T07:02:00.272Z,989.3
2018-09-02T07:03:01.639Z,989.6
2018-09-02T07:04:02.881Z,990.2
2018-09-02T07:05:04.028Z,990
2018-09-02T07:06:08.166Z,990.1
2018-09-02T07:07:09.287Z,990.4
2018-09-02T07:08:10.437Z,989.9
2018-09-02T07:09:11.551Z,989.9
2018-09-02T07:10:12.708Z,990.4
2018-09-02T07:11:13.901Z,990.4
2018-09-02T07:12:15.036Z,990.4
2018-09-02T07:13:16.239Z,990.2
2018-09-02T07:14:20.356Z,990.1
2018-09-02T07:15:21.443Z,990.1
2018-09-02T07:16:26.287Z,990.1
2018-09-02T07:17:29.524Z,990.4
2018-09-02T07:18:34.899Z,990.3
2018-09-02T07:19:35.995Z,990.1
2018-09-02T07:20:37.104Z,989.8
2018-09-02T07:21:38.229Z,990.3
2018-09-02T07:22:40.359Z,990.4
2018-09-02T07:23:41.494Z,989.6
2018-09-02T07:24:45.451Z,989.7
2018-09-02T07:25:46.559Z,989.6
2018-09-02T07:26:47.708Z,989.7
2018-09-02T07:27:48.859Z,989.9
2018-09-02T07:28:50.021Z,990
2018-09-02T07:29:53.628Z,989.7
2018-09-02T07:30:54.829Z,989.6
2018-09-02T07:31:55.946Z,989.8
2018-09-02T07:32:57.057Z,989.9
2018-09-02T07:33:58.195Z,990.1
2018-09-02T07:34:59.337Z,989.9
2018-09-02T07:36:00.450Z,989.9
2018-09-02T07:37:01.598Z,990.6
2018-09-02T07:38:02.759Z,990.6
2018-09-02T07:39:06.985Z,990.7
2018-09-02T07:40:09.170Z,990
2018-09-02T07:41:10.608Z,990
2018-09-02T07:42:11.773Z,990.5
2018-09-02T07:43:23.094Z,990.4
2018-09-02T07:44:24.252Z,990
2018-09-02T07:45:28.390Z,990.4
2018-09-02T07:46:30.529Z,990.1
2018-09-02T07:47:31.680Z,989.7
2018-09-02T07:48:32.928Z,989.8
2018-09-02T07:49:34.058Z,990.4
2018-09-02T07:50:35.216Z,990.4
2018-09-02T07:51:37.519Z,990.4
2018-09-02T07:52:38.644Z,990.3
2018-09-02T07:53:39.758Z,989.9
2018-09-02T07:54:45.934Z,989.7
2018-09-02T07:55:47.079Z,989.6
2018-09-02T07:56:48.238Z,990
2018-09-02T07:57:49.377Z,989.6
2018-09-02T07:58:50.525Z,989.7
2018-09-02T07:59:51.716Z,989.9
2018-09-02T08:00:58.276Z,989.9
2018-09-02T08:01:59.395Z,989.6
2018-09-02T08:03:02.157Z,990
2018-09-02T08:04:05.531Z,989.9
2018-09-02T08:05:15.505Z,989.7
2018-09-02T08:06:16.933Z,989.5
2018-09-02T08:07:20.345Z,989.3
2018-09-02T08:08:21.505Z,989.6
2018-09-02T08:09:23.463Z,989.8
2018-09-02T08:10:24.618Z,990
2018-09-02T08:11:25.735Z,989.6
2018-09-02T08:12:26.881Z,989.7
2018-09-02T08:13:28.019Z,989.7
2018-09-02T08:14:32.252Z,989.7
2018-09-02T08:15:33.502Z,989.1
2018-09-02T08:16:34.682Z,989.2
2018-09-02T08:17:35.828Z,989.1
2018-09-02T08:18:38.528Z,988.9
2018-09-02T08:19:39.648Z,989.1
2018-09-02T08:20:40.793Z,989.1
2018-09-02T08:21:41.993Z,989.1
2018-09-02T08:22:43.110Z,989.2
2018-09-02T08:23:44.370Z,989.1
2018-09-02T08:24:45.357Z,989.1
2018-09-02T08:25:46.517Z,988.9
2018-09-02T08:26:47.647Z,989.1
2018-09-02T08:27:48.752Z,989.3
2018-09-02T08:28:49.897Z,989.4
2018-09-02T08:29:51.016Z,989.3
2018-09-02T08:30:52.187Z,989.1
2018-09-02T08:31:53.290Z,989
2018-09-02T08:32:54.410Z,988.9
2018-09-02T08:33:55.515Z,989
2018-09-02T08:34:56.635Z,989
2018-09-02T08:35:59.980Z,988.8
2018-09-02T08:37:01.111Z,989
2018-09-02T08:38:02.247Z,989.2
2018-09-02T08:39:06.349Z,989.3
2018-09-02T08:40:07.463Z,989.2
2018-09-02T08:41:08.588Z,989.2
2018-09-02T08:42:09.736Z,988.9
2018-09-02T08:43:12.732Z,988.9
2018-09-02T08:44:13.861Z,989
2018-09-02T08:45:17.996Z,989.1
2018-09-02T08:46:19.211Z,988.8
2018-09-02T08:47:20.328Z,988.8
2018-09-02T08:48:21.480Z,989.1
2018-09-02T08:49:23.679Z,989.2
2018-09-02T08:50:27.618Z,989.3
2018-09-02T08:51:28.723Z,989
2018-09-02T08:52:29.856Z,989.3
2018-09-02T08:53:30.967Z,988.9
2018-09-02T08:54:35.583Z,989
2018-09-02T08:55:36.990Z,989
2018-09-02T08:56:38.171Z,989.1
2018-09-02T08:57:39.262Z,989.2
2018-09-02T08:58:40.374Z,989.4
2018-09-02T08:59:41.512Z,989.6
2018-09-02T09:00:42.670Z,989.3
2018-09-02T09:01:47.155Z,989.5
2018-09-02T09:02:48.219Z,989.2
2018-09-02T09:03:49.350Z,989
2018-09-02T09:04:50.493Z,989
2018-09-02T09:05:53.832Z,988.9
2018-09-02T09:06:55.042Z,988.7
2018-09-02T09:07:56.250Z,988.8
2018-09-02T09:08:57.609Z,988.8
2018-09-02T09:09:58.491Z,988.9
2018-09-02T09:10:59.627Z,988.8
2018-09-02T09:12:00.807Z,988.9
2018-09-02T09:13:01.954Z,988.9
2018-09-02T09:14:05.881Z,988.8
2018-09-02T09:15:07.019Z,988.5
2018-09-02T09:16:08.197Z,988.8
2018-09-02T09:17:09.415Z,988.8
2018-09-02T09:18:10.634Z,988.9
2018-09-02T09:19:11.790Z,988.8
2018-09-02T09:20:12.996Z,988.7
2018-09-02T09:21:14.135Z,988.8
2018-09-02T09:22:15.307Z,988.8
2018-09-02T09:23:16.455Z,988.7
2018-09-02T09:24:17.586Z,988.8
2018-09-02T09:25:18.731Z,988.7
2018-09-02T09:26:19.884Z,988.9
2018-09-02T09:27:21.070Z,988.8
2018-09-02T09:28:22.258Z,988.9
2018-09-02T09:29:23.417Z,988.8
2018-09-02T09:30:24.580Z,988.7
2018-09-02T09:31:25.687Z,988.8
2018-09-02T09:32:26.959Z,988.8
2018-09-02T09:33:28.036Z,988.8
2018-09-02T09:34:29.230Z,988.8
2018-09-02T09:35:30.347Z,988.8
2018-09-02T09:36:31.465Z,988.8
2018-09-02T09:37:32.705Z,988.8
2018-09-02T09:38:33.839Z,988.8
2018-09-02T09:39:36.020Z,988.6
2018-09-02T09:40:37.392Z,988.7
2018-09-02T09:41:38.539Z,988.8
2018-09-02T09:42:46.023Z,988.8
2018-09-02T09:43:48.527Z,988.6
2018-09-02T09:44:49.654Z,988.8
2018-09-02T09:45:50.807Z,988.8
2018-09-02T09:46:52.030Z,988.8
2018-09-02T09:47:57.070Z,988.8
2018-09-02T09:48:58.266Z,988.8
2018-09-02T09:49:59.411Z,988.8
2018-09-02T09:51:00.529Z,988.7
2018-09-02T09:52:05.429Z,988.8
2018-09-02T09:53:06.685Z,988.8
2018-09-02T09:54:07.840Z,988.8
2018-09-02T09:55:08.974Z,988.8
2018-09-02T09:56:22.164Z,988.8
2018-09-02T09:57:26.649Z,988.8
2018-09-02T09:58:31.804Z,988.7
2018-09-02T09:59:34.272Z,988.7
2018-09-02T10:00:35.467Z,988.7
2018-09-02T10:01:36.579Z,988.6
2018-09-02T10:02:37.715Z,988.6
2018-09-02T10:03:38.896Z,988.6
2018-09-02T10:04:45.387Z,988.6
2018-09-02T10:05:46.498Z,988.6
2018-09-02T10:06:47.597Z,988.6
2018-09-02T10:07:51.203Z,988.7
2018-09-02T10:08:52.440Z,988.6
2018-09-02T10:09:55.871Z,988.7
2018-09-02T10:10:56.920Z,988.6
2018-09-02T10:11:58.084Z,988.7
2018-09-02T10:12:59.209Z,988.7
2018-09-02T10:14:00.372Z,988.6
2018-09-02T10:15:03.433Z,988.7
2018-09-02T10:16:04.638Z,988.7
2018-09-02T10:17:05.816Z,988.6
2018-09-02T10:18:07.059Z,988.6
2018-09-02T10:19:10.631Z,988.7
2018-09-02T10:20:11.774Z,988.6
2018-09-02T10:21:15.889Z,988.6
2018-09-02T10:22:17.042Z,988.6
2018-09-02T10:23:18.177Z,988.6
2018-09-02T10:24:19.621Z,988.6
2018-09-02T10:25:20.813Z,988.6
2018-09-02T10:26:24.935Z,988.5
2018-09-02T10:27:31.856Z,988.5
2018-09-02T10:28:32.950Z,988.6
2018-09-02T10:29:34.102Z,988.6
2018-09-02T10:30:35.230Z,988.5
2018-09-02T10:31:38.887Z,988.5
2018-09-02T10:32:42.796Z,988.5
2018-09-02T10:33:43.955Z,988.3
2018-09-02T10:34:45.167Z,988.3
2018-09-02T10:35:46.295Z,988.4
2018-09-02T10:36:47.473Z,988.4
2018-09-02T10:37:48.612Z,988.4
2018-09-02T10:38:49.726Z,988.4
2018-09-02T10:39:50.855Z,988.4
2018-09-02T10:40:52.041Z,988.4
2018-09-02T10:41:53.173Z,988.4
2018-09-02T10:42:54.310Z,988.3
2018-09-02T10:43:55.435Z,988.4
2018-09-02T10:44:56.595Z,988.3
2018-09-02T10:45:57.745Z,988.4
2018-09-02T10:46:58.872Z,988.3
2018-09-02T10:47:59.992Z,988.3
2018-09-02T10:49:01.129Z,988.3
2018-09-02T10:50:03.122Z,988.4
2018-09-02T10:51:06.675Z,988.3
2018-09-02T10:52:07.822Z,988.3
2018-09-02T10:53:14.021Z,988.3
2018-09-02T10:54:15.157Z,988.2
2018-09-02T10:55:16.332Z,988.2
2018-09-02T10:56:17.550Z,988.2
2018-09-02T10:57:18.690Z,988.2
2018-09-02T10:58:27.264Z,988.2
2018-09-02T10:59:30.821Z,988.3
2018-09-02T11:00:34.798Z,988.2
2018-09-02T11:01:35.942Z,988.1
2018-09-02T11:02:37.076Z,988.3
2018-09-02T11:03:38.248Z,988.3
2018-09-02T11:04:39.375Z,988.3
2018-09-02T11:05:40.512Z,988.2
2018-09-02T11:06:44.159Z,988.2
2018-09-02T11:07:45.313Z,988.3
2018-09-02T11:08:46.524Z,988.2
2018-09-02T11:09:49.195Z,988.3
2018-09-02T11:10:50.360Z,988.2
2018-09-02T11:11:51.500Z,988.3
2018-09-02T11:12:52.693Z,988.3
2018-09-02T11:13:55.379Z,988.3
2018-09-02T11:14:56.368Z,988.3
2018-09-02T11:15:57.785Z,988.1
2018-09-02T11:17:01.706Z,988.3
2018-09-02T11:18:02.826Z,988.3
2018-09-02T11:19:04.087Z,988.1
2018-09-02T11:20:05.250Z,988.2
2018-09-02T11:21:06.574Z,988.3
2018-09-02T11:22:07.723Z,988.1
2018-09-02T11:23:08.827Z,988.1
2018-09-02T11:24:12.972Z,988.2
2018-09-02T11:25:14.123Z,988.2
2018-09-02T11:26:16.097Z,988.2
2018-09-02T11:27:17.222Z,988.1
2018-09-02T11:29:35.306Z,988
2018-09-02T11:30:36.483Z,988
2018-09-02T11:31:37.654Z,988.1
2018-09-02T11:32:41.239Z,988
2018-09-02T11:33:43.295Z,988.1
2018-09-02T11:34:44.431Z,988.1
2018-09-02T11:35:45.553Z,988.1
2018-09-02T11:36:46.697Z,988
2018-09-02T11:37:49.050Z,988
2018-09-02T11:38:50.140Z,988.2
2018-09-02T11:39:51.914Z,988.1
2018-09-02T11:40:53.024Z,988.2
2018-09-02T11:41:56.595Z,988
2018-09-02T11:42:57.728Z,988.1
2018-09-02T11:43:58.854Z,988.2
2018-09-02T11:45:00.039Z,988.1
2018-09-02T11:46:01.146Z,988.1
2018-09-02T11:47:02.361Z,988.1
2018-09-02T11:48:06.426Z,988.1
2018-09-02T11:49:08.598Z,988.1
2018-09-02T11:50:09.804Z,988.1
2018-09-02T11:51:13.685Z,988
2018-09-02T11:52:15.257Z,988
2018-09-02T11:53:16.722Z,987.9
2018-09-02T11:54:19.157Z,988.1
2018-09-02T11:55:20.308Z,988
2018-09-02T11:56:22.676Z,988
2018-09-02T11:57:29.054Z,988.1
2018-09-02T11:58:30.174Z,988.1
2018-09-02T11:59:31.317Z,988
2018-09-02T12:00:32.512Z,988
2018-09-02T12:01:33.656Z,988
2018-09-02T12:02:37.381Z,988.1
2018-09-02T12:03:38.564Z,988
2018-09-02T12:04:46.316Z,988.1
2018-09-02T12:05:47.467Z,988
2018-09-02T12:06:48.619Z,988
2018-09-02T12:07:49.805Z,987.9
2018-09-02T12:08:50.941Z,988
2018-09-02T12:09:52.104Z,988
2018-09-02T12:11:02.067Z,988.1
2018-09-02T12:12:03.223Z,988.1
2018-09-02T12:13:04.649Z,987.9
2018-09-02T12:14:05.812Z,988.1
2018-09-02T12:15:07.017Z,988.1
2018-09-02T12:16:08.168Z,987.9
2018-09-02T12:17:09.373Z,988
2018-09-02T12:18:10.820Z,987.9
2018-09-02T12:19:14.137Z,988
2018-09-02T12:20:15.345Z,987.9
2018-09-02T12:21:27.894Z,987.8
2018-09-02T12:22:29.019Z,987.9
2018-09-02T12:23:33.321Z,987.9
2018-09-02T12:24:34.464Z,988
2018-09-02T12:25:35.608Z,987.9
2018-09-02T12:26:36.771Z,987.6
2018-09-02T12:27:37.923Z,987.9
2018-09-02T12:28:39.369Z,987.9
2018-09-02T12:29:40.519Z,988
2018-09-02T12:30:41.698Z,987.9
2018-09-02T12:31:42.864Z,988
2018-09-02T12:32:44.034Z,987.8
2018-09-02T12:33:46.100Z,988
2018-09-02T12:34:47.246Z,987.8
2018-09-02T12:35:48.395Z,988.1
2018-09-02T12:36:49.540Z,988
2018-09-02T12:37:50.694Z,988
2018-09-02T12:38:55.588Z,988
2018-09-02T12:39:56.721Z,987.9
2018-09-02T12:40:57.859Z,987.9
2018-09-02T12:42:02.047Z,987.9
2018-09-02T12:43:03.173Z,987.9
2018-09-02T12:44:07.310Z,987.9
2018-09-02T12:45:09.770Z,987.9
2018-09-02T12:46:10.884Z,987.9
2018-09-02T12:47:14.509Z,987.7
2018-09-02T12:48:20.432Z,987.9
2018-09-02T12:49:22.044Z,987.8
2018-09-02T12:50:23.215Z,987.7
2018-09-02T12:51:25.475Z,987.8
2018-09-02T12:52:26.640Z,987.8
2018-09-02T12:53:27.772Z,987.7
2018-09-02T12:54:31.668Z,987.7
2018-09-02T12:55:32.791Z,987.8
2018-09-02T12:56:34.220Z,987.8
2018-09-02T12:57:38.323Z,987.5
2018-09-02T12:58:39.489Z,987.7
2018-09-02T12:59:40.655Z,987.7
2018-09-02T13:00:41.795Z,987.7
2018-09-02T13:01:42.931Z,987.5
2018-09-02T13:02:49.064Z,987.7
2018-09-02T13:03:50.215Z,987.6
2018-09-02T13:04:51.407Z,987.6
2018-09-02T13:05:52.537Z,987.5
2018-09-02T13:06:53.709Z,987.6
2018-09-02T13:07:55.224Z,987.5
2018-09-02T13:08:58.866Z,987.6
2018-09-02T13:10:00.011Z,987.6
2018-09-02T13:11:01.146Z,987.6
2018-09-02T13:12:02.990Z,987.5
2018-09-02T13:13:10.379Z,987.5
2018-09-02T13:14:14.002Z,987.5
2018-09-02T13:15:15.183Z,987.5
2018-09-02T13:16:16.332Z,987.5
2018-09-02T13:17:17.491Z,987.4
2018-09-02T13:18:21.659Z,987.5
2018-09-02T13:19:22.789Z,987.4
2018-09-02T13:20:26.975Z,987.4
2018-09-02T13:21:30.539Z,987.5
2018-09-02T13:22:31.744Z,987.4